Time;durP1;ratioP1;P1;durP2;ratioP2;P2;SDS_P1;SDS_P2;PMS_P1;PMS_P2;Temp;Humidity;BMP_temperature;BMP_pressure;BME280_temperature;BME280_humidity;BME280_pressure;Samples;Min_cycle;Max_cycle;Signal;HPM_P1;HPM_P2
2023/12/26 00:01:45;;;;;;;0.40;0.40;;;16.20;67.80;;;;;;5115031;28;20177;-67
2023/12/26 00:04:11;;;;;;;0.45;0.40;;;16.20;67.80;;;;;;5114814;28;20665;-68
2023/12/26 00:06:38;;;;;;;0.40;0.40;;;16.20;67.80;;;;;;5113864;28;20184;-68
2023/12/26 00:09:04;;;;;;;0.60;0.47;;;16.10;67.80;;;;;;5114754;28;20188;-68
2023/12/26 00:11:30;;;;;;;0.32;0.32;;;16.10;67.80;;;;;;5114402;28;20256;-68
2023/12/26 00:13:56;;;;;;;0.60;0.60;;;16.10;67.80;;;;;;5113729;28;20617;-68
2023/12/26 00:16:21;;;;;;;0.50;0.50;;;16.10;67.80;;;;;;5114313;28;20268;-67
2023/12/26 00:18:47;;;;;;;0.40;0.40;;;16.10;67.80;;;;;;5114693;28;20223;-68
2023/12/26 00:21:12;;;;;;;0.98;0.40;;;16.10;67.80;;;;;;5113680;28;20576;-67
2023/12/26 00:23:38;;;;;;;0.45;0.45;;;16.10;67.90;;;;;;5114166;28;20256;-68
2023/12/26 00:26:04;;;;;;;0.50;0.50;;;16.10;67.90;;;;;;5114404;28;20173;-67
2023/12/26 00:28:30;;;;;;;0.55;0.55;;;16.10;67.90;;;;;;5113296;28;20187;-68
2023/12/26 00:30:55;;;;;;;0.40;0.40;;;16.10;67.90;;;;;;5113691;28;20173;-68
2023/12/26 00:33:21;;;;;;;0.40;0.40;;;16.10;67.90;;;;;;5114129;28;20339;-68
2023/12/26 00:35:46;;;;;;;0.30;0.30;;;16.10;67.90;;;;;;5113644;28;20176;-68
2023/12/26 00:38:12;;;;;;;0.30;0.30;;;16.10;67.90;;;;;;5114065;28;20200;-68
2023/12/26 00:40:41;;;;;;;0.40;0.40;;;16.10;67.90;;;;;;5113187;28;20221;-67
2023/12/26 00:43:07;;;;;;;0.40;0.40;;;16.10;67.90;;;;;;5114009;28;20173;-68
2023/12/26 00:45:33;;;;;;;0.60;0.40;;;16.10;67.90;;;;;;5113986;28;20216;-68
2023/12/26 00:47:58;;;;;;;0.40;0.40;;;16.10;67.90;;;;;;5113314;28;20197;-68
2023/12/26 00:50:24;;;;;;;0.40;0.40;;;16.10;67.80;;;;;;5113743;28;20177;-67
2023/12/26 00:52:49;;;;;;;0.40;0.40;;;16.10;67.90;;;;;;5113660;28;20229;-68
2023/12/26 00:55:15;;;;;;;0.60;0.60;;;16.10;67.90;;;;;;5112899;28;20252;-68
2023/12/26 00:57:41;;;;;;;0.40;0.40;;;16.10;67.90;;;;;;5113522;28;20648;-68
2023/12/26 01:00:07;;;;;;;0.30;0.30;;;16.10;67.80;;;;;;5113586;28;20177;-68
2023/12/26 01:02:33;;;;;;;0.30;0.30;;;16.10;67.90;;;;;;5112831;28;20169;-67
2023/12/26 01:04:58;;;;;;;0.38;0.38;;;16.00;68.10;;;;;;5113752;28;20183;-68
2023/12/26 01:07:24;;;;;;;0.50;0.50;;;16.10;67.80;;;;;;5113205;28;20173;-67
2023/12/26 01:09:50;;;;;;;0.40;0.40;;;16.00;67.70;;;;;;5112928;28;20180;-68
2023/12/26 01:12:15;;;;;;;0.30;0.30;;;16.00;67.80;;;;;;5113069;28;20199;-68
2023/12/26 01:14:41;;;;;;;0.40;0.40;;;16.00;67.70;;;;;;5113603;28;20591;-67
2023/12/26 01:17:06;;;;;;;0.32;0.32;;;16.00;67.80;;;;;;5112574;28;20714;-67
2023/12/26 01:19:32;;;;;;;0.40;0.40;;;16.00;67.80;;;;;;5113016;28;20223;-67
2023/12/26 01:21:57;;;;;;;0.77;0.50;;;16.00;67.80;;;;;;5113235;28;20173;-67
2023/12/26 01:24:23;;;;;;;0.40;0.40;;;16.00;67.80;;;;;;5112230;28;20272;-67
2023/12/26 01:26:49;;;;;;;0.50;0.50;;;16.00;67.80;;;;;;5113219;28;20169;-67
2023/12/26 01:29:14;;;;;;;0.30;0.30;;;16.00;67.80;;;;;;5113028;28;20176;-68
2023/12/26 01:31:40;;;;;;;0.30;0.30;;;16.00;67.80;;;;;;5112458;28;20169;-68
2023/12/26 01:34:06;;;;;;;0.35;0.35;;;16.00;67.80;;;;;;5113187;28;20234;-68
2023/12/26 01:36:32;;;;;;;0.30;0.30;;;16.00;67.80;;;;;;5112605;28;20673;-67
2023/12/26 01:38:58;;;;;;;0.35;0.35;;;16.00;67.80;;;;;;5112291;28;20244;-68
2023/12/26 01:41:23;;;;;;;0.52;0.35;;;16.00;67.80;;;;;;5112005;28;20202;-67
2023/12/26 01:43:49;;;;;;;0.43;0.40;;;16.00;67.80;;;;;;5112276;28;20173;-68
2023/12/26 01:46:14;;;;;;;0.82;0.47;;;16.00;67.80;;;;;;5112774;28;20169;-69
2023/12/26 01:48:40;;;;;;;0.30;0.30;;;16.00;67.80;;;;;;5113000;28;20172;-67
2023/12/26 01:51:07;;;;;;;0.40;0.40;;;16.00;67.80;;;;;;5112084;28;20192;-67
2023/12/26 01:53:34;;;;;;;0.95;0.60;;;16.00;67.80;;;;;;5094154;28;20239;-68
2023/12/26 01:55:59;;;;;;;0.30;0.30;;;16.00;67.80;;;;;;5094702;28;20173;-67
2023/12/26 01:58:25;;;;;;;0.30;0.30;;;16.00;67.80;;;;;;5093396;28;20213;-67
2023/12/26 02:00:50;;;;;;;0.50;0.40;;;16.00;67.80;;;;;;5112795;28;20169;-67
2023/12/26 02:03:17;;;;;;;0.75;0.40;;;16.00;67.70;;;;;;5112321;28;20200;-67
2023/12/26 02:05:44;;;;;;;0.47;0.47;;;16.00;67.80;;;;;;5093834;28;20177;-67
2023/12/26 02:08:09;;;;;;;0.30;0.30;;;16.00;67.80;;;;;;5112575;28;20401;-68
2023/12/26 02:10:36;;;;;;;0.47;0.40;;;16.00;67.80;;;;;;5077359;28;20230;-68
2023/12/26 02:13:01;;;;;;;0.45;0.40;;;15.90;67.70;;;;;;5111769;28;20744;-67
2023/12/26 02:15:27;;;;;;;0.40;0.40;;;16.00;67.80;;;;;;5112115;28;20193;-68
2023/12/26 02:17:52;;;;;;;0.40;0.40;;;16.00;67.80;;;;;;5112685;28;20272;-66
2023/12/26 02:20:18;;;;;;;0.40;0.40;;;16.00;67.70;;;;;;5111496;28;20576;-66
2023/12/26 02:22:45;;;;;;;0.60;0.57;;;16.00;67.80;;;;;;5112437;28;20169;-67
2023/12/26 02:25:12;;;;;;;0.40;0.40;;;15.90;67.70;;;;;;5112435;28;20181;-67
2023/12/26 02:27:38;;;;;;;0.50;0.50;;;15.90;67.80;;;;;;5093518;28;20242;-68
2023/12/26 02:30:07;;;;;;;0.50;0.50;;;15.90;67.80;;;;;;5094205;28;20620;-68
2023/12/26 02:32:33;;;;;;;0.40;0.40;;;15.90;67.70;;;;;;5093947;28;20173;-68
2023/12/26 02:35:00;;;;;;;0.50;0.50;;;15.90;67.70;;;;;;5093648;28;20188;-68
2023/12/26 02:37:26;;;;;;;0.30;0.30;;;15.90;67.80;;;;;;5094115;28;20173;-68
2023/12/26 02:39:51;;;;;;;0.40;0.40;;;15.90;67.70;;;;;;5112653;28;20262;-68
2023/12/26 02:42:18;;;;;;;0.70;0.55;;;15.90;67.70;;;;;;5111622;28;20598;-67
2023/12/26 02:44:43;;;;;;;0.43;0.43;;;15.90;67.80;;;;;;5112429;28;20169;-68
2023/12/26 02:47:09;;;;;;;0.43;0.43;;;15.90;67.90;;;;;;5111474;28;20180;-69
2023/12/26 02:49:35;;;;;;;0.40;0.40;;;15.90;67.80;;;;;;5111986;28;20252;-68
2023/12/26 02:52:00;;;;;;;0.47;0.47;;;15.90;67.90;;;;;;5112750;28;20612;-68
2023/12/26 02:54:26;;;;;;;0.40;0.40;;;15.90;67.90;;;;;;5113873;28;20386;-67
2023/12/26 02:56:52;;;;;;;0.40;0.40;;;15.90;67.90;;;;;;5116368;28;20188;-68
2023/12/26 02:59:18;;;;;;;0.50;0.50;;;15.90;67.90;;;;;;5115836;28;20217;-68
2023/12/26 03:01:45;;;;;;;0.32;0.32;;;15.90;68.00;;;;;;5115332;28;20177;-67
2023/12/26 03:04:10;;;;;;;0.40;0.40;;;15.90;67.90;;;;;;5116059;28;20222;-67
2023/12/26 03:06:36;;;;;;;0.40;0.40;;;15.90;67.90;;;;;;5115665;28;20613;-67
2023/12/26 03:09:01;;;;;;;1.27;0.60;;;15.90;68.70;;;;;;5115092;28;20217;-68
2023/12/26 03:11:27;;;;;;;0.52;0.50;;;15.90;67.90;;;;;;5115756;28;20246;-67
2023/12/26 03:13:53;;;;;;;0.25;0.25;;;15.90;67.90;;;;;;5115742;28;20177;-67
2023/12/26 03:16:20;;;;;;;1.55;0.40;;;15.90;67.90;;;;;;5114796;28;20197;-67
2023/12/26 03:18:46;;;;;;;0.55;0.55;;;15.90;67.80;;;;;;5115674;28;20254;-66
2023/12/26 03:21:12;;;;;;;1.13;0.43;;;15.80;67.70;;;;;;5115647;28;20276;-67
2023/12/26 03:23:37;;;;;;;0.45;0.40;;;15.90;67.90;;;;;;5114457;28;20535;-66
2023/12/26 03:26:03;;;;;;;0.75;0.40;;;15.90;67.80;;;;;;5115838;28;20175;-67
2023/12/26 03:28:28;;;;;;;0.30;0.30;;;15.90;67.80;;;;;;5115405;28;20594;-68
2023/12/26 03:30:54;;;;;;;1.25;0.45;;;15.80;67.70;;;;;;5114834;28;20631;-68
2023/12/26 03:33:20;;;;;;;0.80;0.40;;;15.90;67.80;;;;;;5115081;28;20181;-68
2023/12/26 03:35:45;;;;;;;0.50;0.50;;;15.90;67.80;;;;;;5115391;28;20169;-68
2023/12/26 03:38:11;;;;;;;0.98;0.50;;;15.80;67.70;;;;;;5114466;28;20205;-68
2023/12/26 03:40:36;;;;;;;0.45;0.30;;;15.90;67.80;;;;;;5115259;28;20188;-67
2023/12/26 03:43:03;;;;;;;0.40;0.30;;;15.90;67.80;;;;;;5115275;28;20234;-68
2023/12/26 03:45:29;;;;;;;0.50;0.50;;;15.80;67.70;;;;;;5114230;28;20173;-69
2023/12/26 03:47:55;;;;;;;0.75;0.52;;;15.80;67.70;;;;;;5115312;28;20173;-68
2023/12/26 03:50:20;;;;;;;0.52;0.50;;;15.80;67.80;;;;;;5114815;28;20543;-68
2023/12/26 03:52:46;;;;;;;1.05;0.38;;;15.90;67.90;;;;;;5114188;28;20224;-68
2023/12/26 03:55:13;;;;;;;0.93;0.40;;;15.90;67.80;;;;;;5115321;28;20252;-68
2023/12/26 03:57:39;;;;;;;0.40;0.40;;;15.80;67.70;;;;;;5113805;28;20550;-68
2023/12/26 04:00:05;;;;;;;0.73;0.50;;;15.90;67.90;;;;;;5115074;28;20177;-68
2023/12/26 04:02:31;;;;;;;1.02;0.55;;;15.80;67.70;;;;;;5114498;28;20544;-67
2023/12/26 04:04:57;;;;;;;1.98;0.50;;;15.80;67.70;;;;;;5113280;28;20185;-68
2023/12/26 04:07:22;;;;;;;0.98;0.50;;;15.80;67.70;;;;;;5114529;28;20161;-68
2023/12/26 04:09:48;;;;;;;0.63;0.40;;;15.90;67.80;;;;;;5115000;28;20201;-68
2023/12/26 04:12:14;;;;;;;1.05;0.73;;;15.80;67.70;;;;;;5114032;28;20622;-67
2023/12/26 04:14:39;;;;;;;1.08;0.50;;;15.80;67.70;;;;;;5114744;28;20210;-67
2023/12/26 04:17:05;;;;;;;0.82;0.38;;;15.80;67.70;;;;;;5114624;28;20177;-66
2023/12/26 04:19:30;;;;;;;0.80;0.60;;;15.80;67.70;;;;;;5113580;28;20290;-67
2023/12/26 04:21:56;;;;;;;0.52;0.40;;;15.80;67.70;;;;;;5114424;28;20184;-67
2023/12/26 04:24:22;;;;;;;0.43;0.43;;;15.80;67.60;;;;;;5114404;28;20184;-67
2023/12/26 04:26:47;;;;;;;1.10;0.60;;;15.80;67.70;;;;;;5113799;28;20280;-68
2023/12/26 04:29:13;;;;;;;1.15;0.60;;;15.80;67.70;;;;;;5114389;28;20185;-68
2023/12/26 04:31:39;;;;;;;0.65;0.65;;;15.80;67.70;;;;;;5114423;28;20177;-69
2023/12/26 04:34:04;;;;;;;1.23;0.60;;;15.80;67.70;;;;;;5113667;28;20188;-68
2023/12/26 04:36:36;;;;;;;1.58;0.68;;;15.80;67.70;;;;;;5113912;28;20234;-68
2023/12/26 04:39:04;;;;;;;0.95;0.50;;;15.80;67.70;;;;;;5114338;28;20247;-68
2023/12/26 04:41:30;;;;;;;0.65;0.50;;;15.80;67.70;;;;;;5113370;28;20212;-68
2023/12/26 04:43:55;;;;;;;1.80;0.60;;;15.80;67.70;;;;;;5114278;28;20176;-68
2023/12/26 04:46:21;;;;;;;1.42;0.60;;;15.70;67.60;;;;;;5113847;28;20187;-69
2023/12/26 04:48:46;;;;;;;1.55;0.77;;;15.80;67.60;;;;;;5113348;28;20222;-68
2023/12/26 04:51:16;;;;;;;2.33;0.98;;;15.80;67.70;;;;;;5114179;28;20174;-69
2023/12/26 04:53:42;;;;;;;1.48;0.82;;;15.70;67.60;;;;;;5113378;28;20258;-68
2023/12/26 04:56:07;;;;;;;1.38;0.63;;;15.80;67.60;;;;;;5113797;28;20539;-68
2023/12/26 04:58:33;;;;;;;1.65;0.77;;;15.80;67.60;;;;;;5113566;28;20220;-68
2023/12/26 05:00:59;;;;;;;0.93;0.60;;;15.80;67.60;;;;;;5112944;28;20701;-68
2023/12/26 05:03:25;;;;;;;2.38;0.60;;;15.70;67.50;;;;;;5113389;28;20197;-68
2023/12/26 05:05:51;;;;;;;1.38;0.60;;;15.70;67.50;;;;;;5113712;28;20203;-68
2023/12/26 05:08:16;;;;;;;2.03;0.73;;;15.70;67.50;;;;;;5112789;28;20177;-68
2023/12/26 05:10:42;;;;;;;1.35;0.52;;;15.70;67.40;;;;;;5113790;28;20173;-67
2023/12/26 05:13:08;;;;;;;0.77;0.52;;;15.70;67.50;;;;;;5113724;28;20173;-67
2023/12/26 05:15:34;;;;;;;0.80;0.57;;;15.70;67.40;;;;;;5112377;28;20176;-67
2023/12/26 05:18:03;;;;;;;1.33;0.68;;;15.70;67.50;;;;;;5113325;28;20667;-67
2023/12/26 05:20:28;;;;;;;0.82;0.50;;;15.70;67.40;;;;;;5113272;28;20735;-68
2023/12/26 05:22:54;;;;;;;1.30;0.73;;;15.70;67.40;;;;;;5112606;28;20201;-67
2023/12/26 05:25:20;;;;;;;1.38;0.63;;;15.70;67.40;;;;;;5113211;28;20285;-68
2023/12/26 05:27:45;;;;;;;1.55;0.73;;;15.70;67.40;;;;;;5113244;28;20628;-68
2023/12/26 05:30:11;;;;;;;2.35;0.50;;;15.70;67.40;;;;;;5112610;28;20173;-67
2023/12/26 05:32:37;;;;;;;1.15;0.70;;;15.70;67.40;;;;;;5112880;28;20209;-68
2023/12/26 05:35:03;;;;;;;1.30;0.68;;;15.70;67.40;;;;;;5113368;28;20602;-68
2023/12/26 05:37:28;;;;;;;1.55;0.57;;;15.70;67.40;;;;;;5112431;28;20177;-68
2023/12/26 05:39:54;;;;;;;1.17;0.60;;;15.70;67.40;;;;;;5112815;28;20219;-67
2023/12/26 05:42:20;;;;;;;1.65;0.60;;;15.70;67.40;;;;;;5112877;28;20181;-68
2023/12/26 05:44:45;;;;;;;1.23;0.65;;;15.70;67.40;;;;;;5112339;28;20924;-68
2023/12/26 05:47:11;;;;;;;0.95;0.73;;;15.70;67.40;;;;;;5112948;28;20177;-68
2023/12/26 05:49:36;;;;;;;1.00;0.70;;;15.70;67.40;;;;;;5112657;28;20688;-68
2023/12/26 05:52:02;;;;;;;1.65;0.60;;;15.60;67.20;;;;;;5112269;28;20173;-67
2023/12/26 05:54:28;;;;;;;1.10;0.68;;;15.70;67.40;;;;;;5112453;28;20177;-68
2023/12/26 05:56:54;;;;;;;0.77;0.60;;;15.70;67.30;;;;;;5112823;28;20169;-68
2023/12/26 05:59:19;;;;;;;1.10;0.70;;;15.70;67.30;;;;;;5111765;28;20200;-68
2023/12/26 06:01:46;;;;;;;0.68;0.50;;;15.70;67.30;;;;;;5112710;28;20197;-68
2023/12/26 06:04:12;;;;;;;0.70;0.60;;;15.70;67.30;;;;;;5112166;28;20184;-68
2023/12/26 06:06:37;;;;;;;1.40;0.55;;;15.70;67.30;;;;;;5112313;28;20218;-68
2023/12/26 06:09:03;;;;;;;1.42;0.50;;;15.60;67.20;;;;;;5112652;28;20177;-68
2023/12/26 06:11:28;;;;;;;2.17;0.70;;;15.60;67.20;;;;;;5111860;28;20180;-68
2023/12/26 06:13:54;;;;;;;2.63;0.73;;;15.60;67.20;;;;;;5112844;28;20229;-68
2023/12/26 06:16:20;;;;;;;2.30;0.88;;;15.60;67.20;;;;;;5112211;28;20188;-67
2023/12/26 06:18:45;;;;;;;0.80;0.70;;;15.60;67.20;;;;;;5111753;28;20212;-67
2023/12/26 06:21:11;;;;;;;1.45;0.82;;;15.60;67.20;;;;;;5112476;28;20173;-67
2023/12/26 06:23:37;;;;;;;2.15;0.70;;;15.60;67.20;;;;;;5112372;28;20200;-67
2023/12/26 06:26:03;;;;;;;2.47;1.00;;;15.60;67.10;;;;;;5111900;28;20252;-68
2023/12/26 06:28:29;;;;;;;1.00;0.73;;;15.60;67.10;;;;;;5113817;28;20322;-67
2023/12/26 06:30:54;;;;;;;1.20;0.70;;;15.60;67.10;;;;;;5116664;28;20205;-68
2023/12/26 06:33:20;;;;;;;2.00;0.82;;;15.60;67.10;;;;;;5115593;28;20177;-68
2023/12/26 06:35:45;;;;;;;1.50;0.60;;;15.60;67.10;;;;;;5116867;28;20310;-68
2023/12/26 06:38:14;;;;;;;1.08;0.70;;;15.60;67.10;;;;;;5116395;28;20879;-68
2023/12/26 06:40:40;;;;;;;1.52;0.73;;;15.60;67.10;;;;;;5115796;28;20766;-67
2023/12/26 06:43:06;;;;;;;1.33;0.60;;;15.60;67.10;;;;;;5116539;28;20180;-69
2023/12/26 06:45:32;;;;;;;1.40;0.77;;;15.60;67.10;;;;;;5116124;28;20851;-68
2023/12/26 06:47:58;;;;;;;1.63;0.82;;;15.60;67.00;;;;;;5115961;28;20620;-68
2023/12/26 06:50:23;;;;;;;1.67;0.85;;;15.60;67.00;;;;;;5116204;28;20173;-68
2023/12/26 06:52:49;;;;;;;1.38;0.57;;;15.60;66.90;;;;;;5116029;28;20225;-67
2023/12/26 06:55:14;;;;;;;2.13;0.70;;;15.70;67.00;;;;;;5115403;28;20260;-68
2023/12/26 06:57:40;;;;;;;1.25;0.50;;;15.80;67.00;;;;;;5116250;28;20180;-68
2023/12/26 07:00:06;;;;;;;1.60;0.70;;;15.80;67.00;;;;;;5115979;28;20243;-68
2023/12/26 07:02:32;;;;;;;1.02;0.60;;;15.90;67.00;;;;;;5115102;28;20285;-68
2023/12/26 07:04:58;;;;;;;1.50;0.63;;;16.00;66.90;;;;;;5116045;28;20623;-67
2023/12/26 07:07:23;;;;;;;1.13;0.80;;;16.10;66.80;;;;;;5115003;28;20330;-68
2023/12/26 07:09:49;;;;;;;1.15;0.50;;;16.20;66.40;;;;;;5116085;28;20183;-68
2023/12/26 07:12:14;;;;;;;1.60;0.80;;;16.30;66.20;;;;;;5115729;28;20612;-68
2023/12/26 07:14:40;;;;;;;3.95;1.05;;;16.40;65.80;;;;;;5115105;28;20227;-67
2023/12/26 07:17:05;;;;;;;2.05;0.60;;;16.60;65.30;;;;;;5116063;28;20584;-67
2023/12/26 07:19:31;;;;;;;1.10;0.50;;;16.70;65.20;;;;;;5115377;28;20314;-67
2023/12/26 07:21:57;;;;;;;1.17;0.68;;;16.80;64.80;;;;;;5115230;28;20233;-68
2023/12/26 07:24:22;;;;;;;1.50;0.88;;;16.90;64.70;;;;;;5115398;28;20169;-69
2023/12/26 07:26:48;;;;;;;1.65;0.45;;;17.00;64.40;;;;;;5115814;28;20177;-67
2023/12/26 07:29:13;;;;;;;1.40;0.60;;;17.00;64.30;;;;;;5114643;28;20553;-68
2023/12/26 07:31:39;;;;;;;0.55;0.50;;;17.00;64.20;;;;;;5115550;28;20256;-69
2023/12/26 07:34:08;;;;;;;0.63;0.50;;;17.10;64.20;;;;;;5115543;28;20177;-68
2023/12/26 07:36:34;;;;;;;0.85;0.50;;;17.10;64.00;;;;;;5114443;28;20698;-68
2023/12/26 07:38:59;;;;;;;1.23;0.60;;;17.10;63.90;;;;;;5114982;28;20204;-69
2023/12/26 07:41:25;;;;;;;0.60;0.40;;;17.20;63.70;;;;;;5114310;28;20506;-68
2023/12/26 07:43:52;;;;;;;0.82;0.52;;;17.20;63.70;;;;;;5114552;28;20181;-69
2023/12/26 07:46:18;;;;;;;0.70;0.50;;;17.20;63.80;;;;;;5115212;28;20207;-68
2023/12/26 07:48:44;;;;;;;1.63;0.43;;;17.20;63.60;;;;;;5115383;28;20177;-68
2023/12/26 07:51:12;;;;;;;0.80;0.60;;;17.20;63.60;;;;;;5114193;28;20181;-69
2023/12/26 07:53:38;;;;;;;1.42;0.80;;;17.20;63.80;;;;;;5114509;28;20233;-69
2023/12/26 07:56:03;;;;;;;1.50;0.55;;;17.30;63.70;;;;;;5113077;28;20246;-69
2023/12/26 07:58:30;;;;;;;0.50;0.50;;;17.30;63.60;;;;;;5112832;28;20212;-68
2023/12/26 08:00:56;;;;;;;0.88;0.60;;;17.30;63.50;;;;;;5115314;28;20177;-69
2023/12/26 08:03:21;;;;;;;1.00;0.50;;;17.30;63.60;;;;;;5114775;28;20173;-69
2023/12/26 08:05:47;;;;;;;1.40;0.88;;;17.30;63.60;;;;;;5114180;28;20173;-68
2023/12/26 08:08:12;;;;;;;1.52;0.60;;;17.30;63.60;;;;;;5114833;28;20210;-69
2023/12/26 08:10:40;;;;;;;1.65;0.70;;;17.30;63.40;;;;;;5114130;28;20215;-68
2023/12/26 08:13:06;;;;;;;1.13;0.55;;;17.30;63.40;;;;;;5114920;28;20172;-69
2023/12/26 08:15:31;;;;;;;1.40;0.80;;;17.30;63.40;;;;;;5114465;28;20173;-68
2023/12/26 08:17:57;;;;;;;1.42;0.40;;;17.40;63.40;;;;;;5114113;28;20284;-66
2023/12/26 08:20:23;;;;;;;0.85;0.57;;;17.40;63.40;;;;;;5113467;28;20233;-68
2023/12/26 08:22:48;;;;;;;1.95;0.60;;;17.40;63.30;;;;;;5114510;28;20189;-68
2023/12/26 08:25:14;;;;;;;1.77;0.50;;;17.30;63.30;;;;;;5113534;28;20177;-68
2023/12/26 08:27:40;;;;;;;1.98;0.80;;;17.30;63.30;;;;;;5114333;28;20177;-68
2023/12/26 08:30:07;;;;;;;0.93;0.52;;;17.40;63.30;;;;;;5114693;28;20592;-69
2023/12/26 08:32:33;;;;;;;1.55;0.70;;;17.40;63.20;;;;;;5113542;28;20169;-69
2023/12/26 08:34:59;;;;;;;0.85;0.70;;;17.40;63.20;;;;;;5114356;28;20183;-68
2023/12/26 08:37:25;;;;;;;1.77;0.70;;;17.40;63.20;;;;;;5113904;28;20264;-68
2023/12/26 08:39:51;;;;;;;1.58;0.75;;;17.40;63.10;;;;;;5113525;28;20242;-68
2023/12/26 08:42:16;;;;;;;1.13;0.60;;;17.40;63.20;;;;;;5113810;28;20260;-68
2023/12/26 08:44:42;;;;;;;1.90;0.88;;;17.30;63.20;;;;;;5114127;28;20185;-69
2023/12/26 08:47:07;;;;;;;1.13;0.60;;;17.30;63.30;;;;;;5113481;28;20169;-68
2023/12/26 08:49:33;;;;;;;1.10;0.60;;;17.30;63.30;;;;;;5113843;28;20767;-69
2023/12/26 08:52:00;;;;;;;2.42;0.70;;;17.20;63.30;;;;;;5113725;28;20643;-68
2023/12/26 08:54:25;;;;;;;0.50;0.50;;;17.20;63.50;;;;;;5112759;28;20233;-69
2023/12/26 08:56:51;;;;;;;1.38;0.60;;;17.20;63.50;;;;;;5113815;28;20248;-69
2023/12/26 08:59:18;;;;;;;1.40;0.70;;;17.20;63.40;;;;;;5113657;28;20680;-68
2023/12/26 09:01:44;;;;;;;2.45;0.90;;;17.30;63.40;;;;;;5112905;28;20674;-68
2023/12/26 09:04:10;;;;;;;1.20;0.60;;;17.30;63.30;;;;;;5113905;28;20181;-68
2023/12/26 09:06:35;;;;;;;1.15;0.60;;;17.30;63.20;;;;;;5113317;28;20581;-68
2023/12/26 09:09:04;;;;;;;1.52;0.65;;;17.40;63.10;;;;;;5112947;28;20189;-69
2023/12/26 09:11:29;;;;;;;1.17;0.70;;;17.40;63.00;;;;;;5113104;28;20627;-68
2023/12/26 09:13:55;;;;;;;0.98;0.50;;;17.40;63.00;;;;;;5113296;28;20181;-68
2023/12/26 09:16:21;;;;;;;1.00;0.77;;;17.30;63.10;;;;;;5113188;28;20196;-67
2023/12/26 09:18:47;;;;;;;1.90;0.70;;;17.30;63.30;;;;;;5113356;28;20205;-67
2023/12/26 09:21:13;;;;;;;0.93;0.70;;;17.20;63.50;;;;;;5112796;28;20234;-68
2023/12/26 09:23:39;;;;;;;1.00;0.65;;;17.10;63.50;;;;;;5113430;28;20181;-67
2023/12/26 09:26:04;;;;;;;3.58;1.20;;;17.10;63.70;;;;;;5113205;28;20226;-68
2023/12/26 09:28:31;;;;;;;2.03;0.80;;;17.00;63.70;;;;;;5112281;28;20173;-68
2023/12/26 09:30:57;;;;;;;1.75;0.60;;;17.00;64.70;;;;;;5113371;28;20201;-69
2023/12/26 09:33:22;;;;;;;1.73;0.90;;;17.00;64.00;;;;;;5112833;28;20227;-69
2023/12/26 09:35:48;;;;;;;1.58;0.82;;;17.00;64.00;;;;;;5112449;28;20169;-68
2023/12/26 09:38:13;;;;;;;1.98;0.88;;;17.00;63.90;;;;;;5112761;28;20201;-68
2023/12/26 09:40:39;;;;;;;1.35;0.70;;;17.10;63.80;;;;;;5112951;28;20226;-68
2023/12/26 09:43:05;;;;;;;1.92;0.75;;;17.10;63.70;;;;;;5112546;28;20177;-69
2023/12/26 09:45:34;;;;;;;1.65;0.85;;;17.10;63.70;;;;;;5112806;28;20704;-69
2023/12/26 09:48:00;;;;;;;1.45;0.70;;;17.10;63.70;;;;;;5112968;28;20664;-68
2023/12/26 09:50:25;;;;;;;2.05;0.80;;;17.10;63.80;;;;;;5112029;28;20185;-69
2023/12/26 09:52:58;;;;;;;2.05;0.85;;;17.00;63.90;;;;;;5112680;28;20219;-69
2023/12/26 09:55:24;;;;;;;2.90;0.90;;;17.00;64.00;;;;;;5112591;28;20259;-69
2023/12/26 09:57:50;;;;;;;2.10;0.80;;;17.00;64.20;;;;;;5112279;28;20169;-69
2023/12/26 10:00:15;;;;;;;2.58;0.77;;;16.90;64.10;;;;;;5112397;28;20212;-68
2023/12/26 10:02:44;;;;;;;2.25;0.60;;;16.90;64.20;;;;;;5111893;28;20188;-69
2023/12/26 10:05:10;;;;;;;1.20;0.73;;;16.90;64.20;;;;;;5112128;28;20176;-69
2023/12/26 10:07:36;;;;;;;2.50;0.80;;;16.90;64.30;;;;;;5112284;28;20547;-69
2023/12/26 10:10:02;;;;;;;1.77;0.95;;;16.90;64.40;;;;;;5112690;28;20539;-70
2023/12/26 10:12:31;;;;;;;2.67;0.80;;;16.90;64.50;;;;;;5111921;28;20177;-69
2023/12/26 10:15:02;;;;;;;1.92;0.80;;;16.80;64.40;;;;;;5112609;28;20561;-69
2023/12/26 10:17:28;;;;;;;1.95;0.82;;;16.80;64.40;;;;;;5111563;28;20538;-68
2023/12/26 10:19:57;;;;;;;2.47;1.00;;;16.80;64.50;;;;;;5112463;28;20208;-68
2023/12/26 10:22:24;;;;;;;2.05;0.90;;;16.80;64.40;;;;;;5112128;28;20173;-68
2023/12/26 10:24:50;;;;;;;1.75;0.80;;;16.90;64.50;;;;;;5111771;28;20183;-68
2023/12/26 10:27:15;;;;;;;1.00;0.68;;;16.80;64.40;;;;;;5112198;28;20256;-70
2023/12/26 10:29:41;;;;;;;3.45;0.85;;;16.80;64.40;;;;;;5112532;28;20584;-69
2023/12/26 10:32:07;;;;;;;2.17;0.70;;;16.80;64.30;;;;;;5093778;28;20268;-69
2023/12/26 10:34:32;;;;;;;2.78;1.05;;;16.80;64.40;;;;;;5112134;28;20636;-69
2023/12/26 10:36:59;;;;;;;2.22;1.05;;;16.80;65.20;;;;;;5112199;28;20184;-68
2023/12/26 10:39:24;;;;;;;2.47;0.90;;;16.80;64.30;;;;;;5093178;28;20583;-69
2023/12/26 10:41:50;;;;;;;2.22;0.82;;;16.80;64.40;;;;;;5112461;28;20172;-69
2023/12/26 10:44:16;;;;;;;1.95;0.93;;;16.80;64.40;;;;;;5094064;28;20180;-69
2023/12/26 10:46:42;;;;;;;3.35;1.02;;;16.80;64.40;;;;;;5111498;28;20169;-68
2023/12/26 10:49:10;;;;;;;3.80;1.00;;;16.80;64.40;;;;;;5112242;28;20179;-69
2023/12/26 10:51:39;;;;;;;2.40;1.10;;;16.80;64.40;;;;;;5112247;28;20169;-69
2023/12/26 10:54:23;;;;;;;1.77;1.02;;;16.80;64.40;;;;;;5111303;28;20277;-69
2023/12/26 10:56:49;;;;;;;1.77;1.02;;;16.80;64.40;;;;;;5112192;28;20663;-68
2023/12/26 13:51:43;;;;;;;2.85;1.45;;;16.30;64.20;;;;;;5113176;28;20180;-67
2023/12/26 13:54:10;;;;;;;2.55;1.40;;;16.40;64.30;;;;;;5112702;28;20228;-68
2023/12/26 13:56:36;;;;;;;2.72;1.00;;;16.30;64.30;;;;;;5111752;28;20211;-67
2023/12/26 13:59:01;;;;;;;1.88;1.25;;;16.40;64.40;;;;;;5112564;28;20545;-68
2023/12/26 14:01:27;;;;;;;2.78;0.95;;;16.30;64.30;;;;;;5112327;28;20195;-67
2023/12/26 14:03:52;;;;;;;3.30;1.63;;;16.30;64.30;;;;;;5112060;28;20177;-67
2023/12/26 14:06:21;;;;;;;1.90;0.98;;;16.30;64.30;;;;;;5112413;28;20631;-68
2023/12/26 14:08:50;;;;;;;2.25;1.10;;;16.30;64.30;;;;;;5111897;28;20640;-69
2023/12/26 14:11:16;;;;;;;3.83;1.77;;;16.30;64.20;;;;;;5111598;28;20184;-68
2023/12/26 14:13:42;;;;;;;2.33;1.00;;;16.30;64.20;;;;;;5112500;28;20259;-67
2023/12/26 14:16:07;;;;;;;5.60;1.38;;;16.30;64.30;;;;;;5112389;28;20587;-66
2023/12/26 14:18:33;;;;;;;1.77;0.90;;;16.30;64.30;;;;;;5111539;28;20197;-66
2023/12/26 14:21:00;;;;;;;2.40;1.23;;;16.40;64.20;;;;;;5112331;28;20181;-67
2023/12/26 14:23:26;;;;;;;1.75;1.05;;;16.30;64.20;;;;;;5111386;28;20591;-67
2023/12/26 14:25:51;;;;;;;1.77;0.88;;;16.30;64.20;;;;;;5112345;28;20177;-68
2023/12/26 14:28:17;;;;;;;3.70;1.10;;;16.30;64.30;;;;;;5112132;28;20176;-67
2023/12/26 14:30:43;;;;;;;1.52;1.00;;;16.30;64.30;;;;;;5111904;28;20181;-67
2023/12/26 14:33:08;;;;;;;3.45;1.20;;;16.30;64.30;;;;;;5112347;28;20643;-68
2023/12/26 14:35:34;;;;;;;2.33;1.33;;;16.30;64.30;;;;;;5111867;28;20188;-67
2023/12/26 14:38:02;;;;;;;2.67;1.50;;;16.30;64.30;;;;;;5111566;28;20165;-68
2023/12/26 14:40:28;;;;;;;2.53;1.20;;;16.30;64.30;;;;;;5111896;28;20218;-67
2023/12/26 14:42:53;;;;;;;3.40;1.27;;;16.30;64.20;;;;;;5112182;28;20256;-68
2023/12/26 14:45:19;;;;;;;2.13;1.20;;;16.40;64.30;;;;;;5111213;28;20177;-68
2023/12/26 14:47:44;;;;;;;2.10;1.15;;;16.40;65.00;;;;;;5112118;28;20173;-68
2023/12/26 14:50:10;;;;;;;1.88;1.00;;;16.30;64.10;;;;;;5114740;28;20169;-68
2023/12/26 14:52:36;;;;;;;2.55;1.35;;;16.40;64.10;;;;;;5114980;28;20303;-67
2023/12/26 14:55:03;;;;;;;3.40;1.25;;;16.40;64.10;;;;;;5116030;28;20177;-67
2023/12/26 14:57:28;;;;;;;3.38;1.20;;;16.30;64.20;;;;;;5116079;28;20192;-68
2023/12/26 14:59:54;;;;;;;1.92;1.08;;;16.30;64.10;;;;;;5115264;28;20722;-67
2023/12/26 15:02:22;;;;;;;1.45;1.00;;;16.30;64.20;;;;;;5115693;28;20173;-67
2023/12/26 15:04:48;;;;;;;2.65;1.58;;;16.30;64.20;;;;;;5110749;28;20185;-67
2023/12/26 15:07:14;;;;;;;1.08;1.00;;;16.30;64.20;;;;;;5114971;28;20183;-67
2023/12/26 15:09:39;;;;;;;1.85;1.08;;;16.30;64.20;;;;;;5115867;28;20627;-68
2023/12/26 15:12:05;;;;;;;2.20;1.27;;;16.40;64.20;;;;;;5115926;28;20242;-67
2023/12/26 15:14:31;;;;;;;2.20;1.30;;;16.40;64.20;;;;;;5114947;28;20177;-67
2023/12/26 15:16:56;;;;;;;2.05;1.00;;;16.40;64.10;;;;;;5115750;28;20606;-67
2023/12/26 15:19:23;;;;;;;1.77;1.10;;;16.40;64.10;;;;;;5115453;28;20208;-66
2023/12/26 15:21:48;;;;;;;1.92;1.00;;;16.50;64.10;;;;;;5114930;28;20643;-67
2023/12/26 15:24:14;;;;;;;3.38;1.20;;;16.50;63.90;;;;;;5115437;28;20173;-66
2023/12/26 15:26:49;;;;;;;2.47;1.25;;;16.50;63.90;;;;;;5115305;28;20642;-68
2023/12/26 15:29:14;;;;;;;2.20;1.05;;;16.50;63.80;;;;;;5115275;28;20760;-70
2023/12/26 15:31:44;;;;;;;4.03;1.40;;;16.60;63.70;;;;;;5115641;28;20256;-68
2023/12/26 15:34:10;;;;;;;1.80;1.13;;;16.60;63.60;;;;;;5114917;28;20180;-68